createdAt,value
2022-08-30T09:13:57.903Z,20.30
2022-08-30T09:16:51.894Z,20.40
2022-08-30T09:19:54.263Z,20.40
2022-08-30T09:22:31.856Z,20.50
2022-08-30T09:25:25.332Z,20.50
2022-08-30T09:27:54.016Z,20.60
2022-08-30T09:30:30.173Z,20.60
2022-08-30T09:33:02.344Z,20.60
2022-08-30T09:35:38.091Z,20.80
2022-08-30T09:38:08.313Z,20.80
2022-08-30T09:40:44.810Z,20.90
2022-08-30T09:43:17.768Z,20.90
2022-08-30T09:45:49.845Z,21.00
2022-08-30T09:48:31.320Z,21.00
2022-08-30T09:51:04.409Z,21.10
2022-08-30T09:53:36.080Z,21.20
2022-08-30T09:56:27.787Z,21.40
2022-08-30T09:59:16.228Z,21.40
2022-08-30T10:01:48.628Z,21.30
2022-08-30T10:04:46.791Z,21.40
2022-08-30T10:07:20.701Z,21.50
2022-08-30T10:10:07.915Z,21.60
2022-08-30T10:12:54.727Z,21.70
2022-08-30T10:15:49.010Z,21.80
2022-08-30T10:18:38.682Z,21.90
2022-08-30T10:21:19.344Z,22.00
2022-08-30T10:23:56.661Z,22.00
2022-08-30T10:26:47.750Z,22.30
2022-08-30T10:29:31.277Z,22.30
2022-08-30T10:32:46.857Z,22.10
2022-08-30T10:35:19.630Z,22.20
2022-08-30T10:38:05.531Z,22.30
2022-08-30T10:40:56.948Z,22.40
2022-08-30T10:43:50.906Z,22.70
2022-08-30T10:46:42.165Z,22.70
2022-08-30T10:49:15.439Z,22.80
2022-08-30T10:51:58.876Z,22.90
2022-08-30T10:54:52.971Z,22.90
2022-08-30T10:57:20.408Z,23.00
2022-08-30T11:00:30.565Z,22.90
2022-08-30T11:03:23.028Z,23.10
2022-08-30T11:06:38.896Z,23.20
2022-08-30T11:09:27.863Z,23.20
2022-08-30T11:12:11.595Z,23.30
2022-08-30T11:14:44.191Z,23.40
2022-08-30T11:17:31.921Z,23.40
2022-08-30T11:20:02.649Z,23.40
2022-08-30T11:22:39.201Z,23.60
2022-08-30T11:25:15.680Z,23.70
2022-08-30T11:27:42.528Z,23.90
2022-08-30T11:30:26.734Z,23.80
2022-08-30T11:33:30.683Z,24.20
2022-08-30T11:35:58.061Z,24.20
2022-08-30T11:38:28.673Z,24.10
2022-08-30T11:40:55.415Z,24.20
2022-08-30T11:43:34.541Z,24.20
2022-08-30T11:46:36.195Z,24.30
2022-08-30T11:49:15.052Z,24.50
2022-08-30T11:51:46.667Z,24.60
2022-08-30T11:54:31.236Z,24.40
2022-08-30T11:57:13.127Z,24.90
2022-08-30T12:00:00.273Z,25.00
2022-08-30T12:02:47.790Z,25.00
2022-08-30T12:05:45.796Z,25.20
2022-08-30T12:08:21.191Z,25.40
2022-08-30T12:11:00.432Z,25.30
2022-08-30T12:13:42.932Z,25.60
2022-08-30T12:17:03.545Z,25.70
2022-08-30T12:19:32.325Z,25.20
2022-08-30T12:22:06.236Z,25.40
2022-08-30T12:24:40.172Z,25.70
2022-08-30T12:27:27.970Z,25.80
2022-08-30T12:30:04.396Z,25.40
2022-08-30T12:32:32.413Z,26.00
2022-08-30T12:35:03.245Z,26.20
2022-08-30T12:37:38.589Z,26.20
2022-08-30T12:40:22.060Z,26.40
2022-08-30T12:43:00.340Z,26.40
2022-08-30T12:45:41.622Z,26.50
2022-08-30T12:48:15.582Z,26.70
2022-08-30T12:50:51.801Z,26.90
2022-08-30T12:53:31.771Z,26.80
2022-08-30T12:56:03.790Z,26.90
2022-08-30T12:58:50.813Z,26.90
2022-08-30T13:01:32.325Z,27.20
2022-08-30T13:04:20.148Z,27.30
2022-08-30T13:06:58.677Z,27.50
2022-08-30T13:09:27.022Z,27.60
2022-08-30T13:11:55.131Z,27.80
2022-08-30T13:14:37.813Z,28.10
2022-08-30T13:17:08.454Z,28.30
2022-08-30T13:19:42.980Z,28.10
2022-08-30T13:22:30.390Z,28.30
2022-08-30T13:24:58.772Z,28.20
2022-08-30T13:27:27.657Z,28.50
2022-08-30T13:29:54.847Z,28.40
2022-08-30T13:32:22.892Z,28.50
2022-08-30T13:34:49.829Z,28.70
2022-08-30T13:40:13.759Z,28.40
2022-08-30T13:42:42.937Z,28.70
2022-08-30T13:48:01.381Z,29.10
2022-08-30T13:50:28.230Z,29.40
2022-08-30T13:52:57.731Z,29.60
2022-08-30T13:55:25.180Z,29.50
2022-08-30T13:57:54.478Z,29.80
2022-08-30T14:00:23.665Z,29.70
2022-08-30T14:02:57.577Z,29.40
2022-08-30T14:11:11.302Z,29.50
2022-08-30T14:13:38.970Z,28.90
2022-08-30T14:16:27.428Z,29.10
2022-08-30T14:18:55.649Z,28.70
2022-08-30T14:21:24.463Z,29.10
2022-08-30T14:23:52.919Z,28.90
2022-08-30T14:26:26.941Z,28.50
2022-08-30T14:28:59.611Z,29.00
2022-08-30T14:31:26.709Z,29.00
2022-08-30T14:33:53.614Z,28.70
2022-08-30T14:36:20.785Z,28.70
2022-08-30T14:38:48.567Z,28.30
2022-08-30T14:41:15.669Z,28.50
2022-08-30T14:43:42.829Z,28.40
2022-08-30T14:46:10.575Z,28.20
2022-08-30T14:48:38.869Z,28.10
2022-08-30T14:51:14.904Z,28.10
2022-08-30T14:53:42.463Z,27.90
2022-08-30T14:56:12.073Z,27.50
2022-08-30T14:58:38.910Z,27.40
2022-08-30T15:01:10.115Z,27.50
2022-08-30T15:03:40.356Z,27.00
2022-08-30T15:06:08.038Z,27.00
2022-08-30T15:08:36.726Z,27.10
2022-08-30T15:11:13.194Z,27.00
2022-08-30T15:13:41.281Z,26.80
2022-08-30T15:16:20.488Z,26.70
2022-08-30T15:18:48.162Z,26.90
2022-08-30T15:21:15.312Z,26.70
2022-08-30T15:23:42.064Z,26.80
2022-08-30T15:26:09.933Z,26.90
2022-08-30T15:28:36.980Z,26.80
2022-08-30T15:31:08.683Z,26.80
2022-08-30T15:33:37.611Z,26.70
2022-08-30T15:36:05.170Z,26.60
2022-08-30T15:38:33.395Z,26.30
2022-08-30T15:41:04.409Z,26.50
2022-08-30T15:43:31.537Z,26.40
2022-08-30T15:46:18.753Z,26.30
2022-08-30T15:48:46.722Z,26.40
2022-08-30T15:51:14.189Z,26.30
2022-08-30T15:53:42.598Z,26.30
2022-08-30T15:56:10.732Z,26.30
2022-08-30T15:58:41.489Z,26.00
2022-08-30T16:01:09.102Z,25.80
2022-08-30T16:03:37.903Z,25.70
2022-08-30T16:06:05.079Z,26.00
2022-08-30T16:08:34.563Z,25.90
2022-08-30T16:11:01.823Z,25.70
2022-08-30T16:13:28.974Z,25.40
2022-08-30T16:16:01.064Z,25.60
2022-08-30T16:18:28.187Z,25.40
2022-08-30T16:21:11.615Z,25.40
2022-08-30T16:23:40.609Z,25.00
2022-08-30T16:26:18.579Z,25.40
2022-08-30T16:28:47.745Z,25.20
2022-08-30T16:31:17.151Z,25.10
2022-08-30T16:33:45.068Z,25.10
2022-08-30T16:36:12.942Z,25.00
2022-08-30T16:38:41.225Z,25.00
2022-08-30T16:41:12.256Z,24.90
2022-08-30T16:43:40.125Z,25.00
2022-08-30T16:46:11.327Z,24.90
2022-08-30T16:48:39.423Z,24.90
2022-08-30T16:51:14.743Z,24.70
2022-08-30T16:53:43.057Z,24.80
2022-08-30T16:56:19.017Z,24.70
2022-08-30T16:58:46.994Z,24.60
2022-08-30T17:01:15.672Z,24.60
2022-08-30T17:03:44.154Z,24.60
2022-08-30T17:06:11.006Z,24.60
2022-08-30T17:08:38.351Z,24.50
2022-08-30T17:11:06.725Z,24.20
2022-08-30T17:13:36.132Z,24.20
2022-08-30T17:16:05.309Z,24.20
2022-08-30T17:18:32.801Z,24.20
2022-08-30T17:20:59.868Z,24.10
2022-08-30T17:23:26.983Z,24.00
2022-08-30T17:25:54.746Z,23.90
2022-08-30T17:28:22.275Z,23.90
2022-08-30T17:30:49.557Z,23.80
2022-08-30T17:33:18.251Z,23.70
2022-08-30T17:35:45.320Z,23.80
2022-08-30T17:38:13.406Z,23.70
2022-08-30T17:40:40.342Z,23.70
2022-08-30T17:43:08.475Z,23.60
2022-08-30T17:45:35.515Z,23.60
2022-08-30T17:48:03.483Z,23.60
2022-08-30T17:53:17.560Z,23.40
2022-08-30T17:55:48.979Z,23.40
2022-08-30T17:58:16.236Z,23.20
2022-08-30T18:00:45.141Z,23.30
2022-08-30T18:03:12.551Z,23.20
2022-08-30T18:05:43.837Z,23.20
2022-08-30T18:08:14.342Z,23.00
2022-08-30T18:10:41.212Z,23.00
2022-08-30T18:13:08.263Z,23.00
2022-08-30T18:15:35.621Z,22.90
2022-08-30T18:18:04.293Z,22.80
2022-08-30T18:20:32.165Z,22.80
2022-08-30T18:23:00.234Z,22.70
2022-08-30T18:25:27.081Z,22.60
2022-08-30T18:27:58.236Z,22.60
2022-08-30T18:30:33.214Z,22.50
2022-08-30T18:33:01.009Z,22.40
2022-08-30T18:35:28.083Z,22.40
2022-08-30T18:37:55.012Z,22.30
2022-08-30T18:40:21.975Z,22.20
2022-08-30T18:42:48.908Z,22.20
2022-08-30T18:45:16.057Z,22.10
2022-08-30T18:47:43.328Z,22.00
2022-08-30T18:50:10.252Z,22.00
2022-08-30T18:52:37.113Z,21.90
2022-08-30T18:55:07.646Z,21.90
2022-08-30T18:57:35.593Z,21.80
2022-08-30T19:00:03.996Z,21.70
2022-08-30T19:02:31.730Z,21.60
2022-08-30T19:04:59.172Z,21.50
2022-08-30T19:07:30.876Z,21.50
2022-08-30T19:10:05.488Z,21.40
2022-08-30T19:12:32.413Z,21.40
2022-08-30T19:14:59.359Z,21.30
2022-08-30T19:17:26.743Z,21.20
2022-08-30T19:19:55.083Z,21.20
2022-08-30T19:22:24.509Z,21.20
2022-08-30T19:24:55.432Z,21.10
2022-08-30T19:27:37.542Z,21.10
2022-08-30T19:30:09.506Z,21.00
2022-08-30T19:32:36.641Z,21.00
2022-08-30T19:35:04.105Z,20.90
2022-08-30T19:37:31.045Z,20.90
2022-08-30T19:40:02.334Z,20.90
2022-08-30T19:42:29.136Z,20.80
2022-08-30T19:44:55.976Z,20.80
2022-08-30T19:47:22.828Z,20.70
2022-08-30T19:49:49.668Z,20.70
2022-08-30T19:52:18.768Z,20.60
2022-08-30T19:54:45.718Z,20.50
2022-08-30T19:57:13.059Z,20.60
2022-08-30T19:59:41.027Z,20.60
2022-08-30T20:02:08.627Z,20.50
2022-08-30T20:04:35.526Z,20.40
2022-08-30T20:07:02.464Z,20.40
2022-08-30T20:09:29.446Z,20.30
2022-08-30T20:11:58.691Z,20.40
2022-08-30T20:14:26.172Z,20.30
2022-08-30T20:16:53.548Z,20.30
2022-08-30T20:19:21.777Z,20.20
2022-08-30T20:21:54.598Z,20.20
2022-08-30T20:24:26.544Z,23.50
2022-08-30T20:24:27.947Z,20.20
2022-08-30T20:26:55.049Z,20.20
2022-08-30T20:29:21.730Z,20.10
2022-08-30T20:31:48.989Z,20.20
2022-08-30T20:34:15.650Z,20.00
2022-08-30T20:36:42.382Z,20.00
2022-08-30T20:39:10.037Z,20.00
2022-08-30T20:41:37.894Z,19.90
2022-08-30T20:44:06.990Z,20.00
2022-08-30T20:46:42.141Z,19.90
2022-08-30T20:49:08.852Z,19.90
2022-08-30T20:51:35.860Z,19.90
2022-08-30T20:54:06.488Z,19.80
2022-08-30T20:56:34.397Z,19.80
2022-08-30T20:59:02.619Z,19.80
2022-08-30T21:01:31.657Z,19.80
2022-08-30T21:03:58.366Z,19.70
2022-08-30T21:06:25.297Z,19.60
2022-08-30T21:08:52.553Z,19.70
2022-08-30T21:11:19.749Z,19.60
2022-08-30T21:13:48.324Z,19.60
2022-08-30T21:16:17.049Z,19.60
2022-08-30T21:18:48.738Z,19.50
2022-08-30T21:21:21.236Z,19.40
2022-08-30T21:23:49.406Z,19.40
2022-08-30T21:26:16.948Z,19.40
2022-08-30T21:28:45.893Z,19.40
2022-08-30T21:31:15.551Z,19.40
2022-08-30T21:33:42.470Z,19.30
2022-08-30T21:36:28.765Z,19.30
2022-08-30T21:39:00.744Z,19.30
2022-08-30T21:41:28.716Z,19.20
